createdAt,value
2022-10-01T00:02:12.833Z,97041.78
2022-10-01T00:04:40.256Z,97034.75
2022-10-01T00:07:13.391Z,97033.53
2022-10-01T00:09:40.732Z,97044.56
2022-10-01T00:12:08.428Z,97045.69
2022-10-01T00:14:39.294Z,97057.34
2022-10-01T00:17:06.858Z,97052.06
2022-10-01T00:19:33.935Z,97061.75
2022-10-01T00:22:00.894Z,97056.75
2022-10-01T00:24:28.534Z,97059.13
2022-10-01T00:26:58.930Z,97054.72
2022-10-01T00:29:26.154Z,97055.47
2022-10-01T00:31:55.238Z,97068.19
2022-10-01T00:34:22.606Z,97063.38
2022-10-01T00:36:51.795Z,97056.44
2022-10-01T00:39:21.400Z,97061.63
2022-10-01T00:41:50.963Z,97063.63
2022-10-01T00:44:37.624Z,97049.75
2022-10-01T00:47:22.478Z,97045.34
2022-10-01T00:49:59.419Z,97047.66
2022-10-01T00:52:32.704Z,97039.59
2022-10-01T00:55:18.297Z,97027.00
2022-10-01T00:57:45.843Z,97014.88
2022-10-01T01:00:19.303Z,97009.59
2022-10-01T01:02:46.556Z,96985.56
2022-10-01T01:05:15.820Z,96972.16
2022-10-01T01:07:48.643Z,96978.09
2022-10-01T01:10:20.870Z,96979.13
2022-10-01T01:13:11.569Z,96991.69
2022-10-01T01:16:00.772Z,96991.50
2022-10-01T01:18:50.695Z,96970.00
2022-10-01T01:21:32.847Z,96963.22
2022-10-01T01:24:37.564Z,96949.94
2022-10-01T01:27:31.479Z,96949.25
2022-10-01T01:30:15.576Z,96912.88
2022-10-01T01:33:14.735Z,96876.22
2022-10-01T01:36:07.037Z,96838.31
2022-10-01T01:38:43.229Z,96835.47
2022-10-01T01:41:14.445Z,96861.94
2022-10-01T01:43:48.277Z,96899.22
2022-10-01T01:46:17.862Z,96928.06
2022-10-01T01:48:50.316Z,96944.13
2022-10-01T01:51:36.878Z,96954.97
2022-10-01T01:54:04.252Z,96925.56
2022-10-01T01:56:32.333Z,96914.75
2022-10-01T01:59:01.225Z,96902.19
2022-10-01T02:01:43.449Z,96895.59
2022-10-01T02:04:41.210Z,96909.13
2022-10-01T02:07:53.674Z,96943.81
2022-10-01T02:11:15.901Z,96975.88
2022-10-01T02:14:01.683Z,97003.31
2022-10-01T02:16:38.819Z,97021.31
2022-10-01T02:19:47.024Z,97035.16
2022-10-01T02:22:28.674Z,97054.00
2022-10-01T02:25:00.079Z,97038.44
2022-10-01T02:27:38.471Z,97027.31
2022-10-01T02:30:12.199Z,97034.16
2022-10-01T02:32:46.518Z,97048.28
2022-10-01T02:35:19.978Z,97047.16
2022-10-01T02:37:52.984Z,97066.03
2022-10-01T02:40:27.049Z,97062.63
2022-10-01T02:43:08.687Z,97058.19
2022-10-01T02:45:42.706Z,97058.28
2022-10-01T02:48:19.428Z,97062.00
2022-10-01T02:51:09.371Z,97051.59
2022-10-01T02:53:47.509Z,97047.53
2022-10-01T02:56:35.539Z,97051.16
2022-10-01T02:59:08.503Z,97052.88
2022-10-01T03:01:42.661Z,97052.25
2022-10-01T03:04:09.895Z,97046.94
2022-10-01T03:06:37.177Z,97038.53
2022-10-01T03:09:08.840Z,97028.94
2022-10-01T03:11:39.033Z,97028.63
2022-10-01T03:14:11.956Z,97026.38
2022-10-01T03:16:46.587Z,97027.81
2022-10-01T03:19:14.437Z,97030.44
2022-10-01T03:21:41.492Z,97035.19
2022-10-01T03:24:08.682Z,97043.41
2022-10-01T03:26:36.525Z,97066.97
2022-10-01T03:29:05.200Z,97075.97
2022-10-01T03:31:35.721Z,97074.09
2022-10-01T03:34:05.861Z,97067.50
2022-10-01T03:36:33.051Z,97079.84
2022-10-01T03:39:05.936Z,97090.66
2022-10-01T03:41:37.098Z,97104.06
2022-10-01T03:44:05.017Z,97101.09
2022-10-01T03:46:34.807Z,97098.81
2022-10-01T03:49:02.200Z,97112.81
2022-10-01T03:51:31.156Z,97101.06
2022-10-01T03:54:00.683Z,97106.66
2022-10-01T03:56:28.242Z,97102.19
2022-10-01T03:58:58.433Z,97091.16
2022-10-01T04:01:26.305Z,97082.16
2022-10-01T04:03:54.217Z,97081.28
2022-10-01T04:06:23.673Z,97087.34
2022-10-01T04:08:50.909Z,97082.13
2022-10-01T04:11:18.124Z,97078.16
2022-10-01T04:13:45.138Z,97098.19
2022-10-01T04:16:12.482Z,97089.91
2022-10-01T04:18:39.711Z,97074.31
2022-10-01T04:21:10.238Z,97072.69
2022-10-01T04:23:37.381Z,97087.63
2022-10-01T04:26:04.751Z,97094.66
2022-10-01T04:28:32.288Z,97104.94
2022-10-01T04:31:18.651Z,97116.13
2022-10-01T04:33:46.077Z,97106.19
2022-10-01T04:36:15.627Z,97096.28
2022-10-01T04:38:44.385Z,97101.88
2022-10-01T04:41:14.289Z,97089.88
2022-10-01T04:43:41.613Z,97079.22
2022-10-01T04:46:08.693Z,97076.63
2022-10-01T04:48:39.764Z,97087.97
2022-10-01T04:51:10.328Z,97084.13
2022-10-01T04:53:37.509Z,97091.72
2022-10-01T04:56:05.578Z,97090.88
2022-10-01T04:58:32.925Z,97081.81
2022-10-01T05:01:02.241Z,97072.31
2022-10-01T05:03:32.824Z,97066.56
2022-10-01T05:06:00.067Z,97065.13
2022-10-01T05:08:27.305Z,97068.66
2022-10-01T05:10:54.466Z,97067.97
2022-10-01T05:13:24.005Z,97061.75
2022-10-01T05:15:52.449Z,97076.53
2022-10-01T05:18:21.441Z,97074.97
2022-10-01T05:20:48.721Z,97091.72
2022-10-01T05:23:18.778Z,97076.88
2022-10-01T05:25:47.118Z,97092.44
2022-10-01T05:28:19.862Z,97102.28
2022-10-01T05:30:49.471Z,97089.59
2022-10-01T05:33:16.967Z,97099.88
2022-10-01T05:35:44.702Z,97099.00
2022-10-01T05:38:14.868Z,97088.78
2022-10-01T05:40:46.720Z,97099.34
2022-10-01T05:43:14.940Z,97079.91
2022-10-01T05:45:43.192Z,97082.06
2022-10-01T05:48:12.956Z,97105.22
2022-10-01T05:50:40.951Z,97129.50
2022-10-01T05:53:11.281Z,97130.88
2022-10-01T05:55:41.347Z,97125.94
2022-10-01T05:58:12.697Z,97143.00
2022-10-01T06:00:44.265Z,97148.91
2022-10-01T06:03:17.020Z,97145.78
2022-10-01T06:05:49.574Z,97136.88
2022-10-01T06:08:17.123Z,97141.25
2022-10-01T06:10:44.508Z,97144.97
2022-10-01T06:13:17.857Z,97153.47
2022-10-01T06:15:48.492Z,97139.44
2022-10-01T06:18:15.638Z,97150.38
2022-10-01T06:20:45.203Z,97149.53
2022-10-01T06:23:14.284Z,97134.28
2022-10-01T06:25:43.725Z,97142.63
2022-10-01T06:28:16.613Z,97130.22
2022-10-01T06:30:52.403Z,97138.34
2022-10-01T06:33:20.290Z,97144.56
2022-10-01T06:35:52.317Z,97153.56
2022-10-01T06:38:23.260Z,97179.09
2022-10-01T06:41:08.237Z,97175.56
2022-10-01T06:43:38.473Z,97195.03
2022-10-01T06:46:11.859Z,97206.97
2022-10-01T06:48:43.417Z,97235.53
2022-10-01T06:51:18.171Z,97224.28
2022-10-01T06:53:48.182Z,97211.03
2022-10-01T06:56:19.999Z,97198.53
2022-10-01T06:58:57.389Z,97192.25
2022-10-01T07:01:30.526Z,97198.28
2022-10-01T07:04:03.205Z,97201.66
2022-10-01T07:06:36.883Z,97204.47
2022-10-01T07:09:06.986Z,97210.44
2022-10-01T07:11:53.214Z,97202.56
2022-10-01T07:14:33.871Z,97186.81
2022-10-01T07:17:10.301Z,97183.28
2022-10-01T07:19:44.354Z,97162.13
2022-10-01T07:22:14.479Z,97140.25
2022-10-01T07:24:43.709Z,97116.44
2022-10-01T07:27:16.122Z,97076.91
2022-10-01T07:29:51.609Z,97060.13
2022-10-01T07:32:26.812Z,97034.84
2022-10-01T07:34:53.954Z,97069.84
2022-10-01T07:37:21.742Z,97104.06
2022-10-01T07:39:57.203Z,97148.53
2022-10-01T07:42:24.623Z,97186.34
2022-10-01T07:44:55.396Z,97214.06
2022-10-01T07:47:22.599Z,97247.66
2022-10-01T07:49:50.942Z,97260.78
2022-10-01T07:52:18.041Z,97277.63
2022-10-01T07:54:45.050Z,97295.59
2022-10-01T07:57:12.232Z,97298.78
2022-10-01T07:59:41.001Z,97312.38
2022-10-01T08:02:19.145Z,97330.72
2022-10-01T08:05:05.135Z,97336.34
2022-10-01T08:07:32.365Z,97310.97
2022-10-01T08:09:59.527Z,97299.25
2022-10-01T08:12:34.732Z,97314.09
2022-10-01T08:15:09.837Z,97305.69
2022-10-01T08:17:38.787Z,97301.03
2022-10-01T08:20:09.791Z,97311.72
2022-10-01T08:22:41.698Z,97312.75
2022-10-01T08:25:10.096Z,97323.06
2022-10-01T08:27:37.858Z,97348.03
2022-10-01T08:30:09.281Z,97353.94
2022-10-01T08:32:36.434Z,97360.84
2022-10-01T08:35:05.218Z,97357.31
2022-10-01T08:37:32.371Z,97332.72
2022-10-01T08:39:59.563Z,97340.47
2022-10-01T08:42:39.971Z,97339.88
2022-10-01T08:45:23.702Z,97334.59
2022-10-01T08:48:13.555Z,97349.75
2022-10-01T08:51:04.723Z,97358.09
2022-10-01T08:53:45.497Z,97384.28
2022-10-01T08:56:27.918Z,97389.66
2022-10-01T08:59:28.580Z,97431.78
2022-10-01T09:01:59.181Z,97423.22
2022-10-01T09:04:29.649Z,97430.13
2022-10-01T09:07:28.849Z,97445.47
2022-10-01T09:10:43.470Z,97456.66
2022-10-01T09:14:13.130Z,97458.69
2022-10-01T09:17:36.610Z,97480.06
2022-10-01T09:20:31.609Z,97473.88
2022-10-01T09:23:29.886Z,97491.13
2022-10-01T09:25:59.816Z,97497.31
2022-10-01T09:28:33.579Z,97478.00
2022-10-01T09:31:27.206Z,97495.75
2022-10-01T09:34:12.699Z,97519.50
2022-10-01T09:37:19.001Z,97509.22
2022-10-01T09:40:27.580Z,97524.63
2022-10-01T09:42:58.781Z,97515.03
2022-10-01T09:45:29.504Z,97513.16
2022-10-01T09:48:23.084Z,97522.69
2022-10-01T09:51:13.181Z,97529.25
2022-10-01T09:53:58.364Z,97548.50
2022-10-01T09:57:05.923Z,97540.66
2022-10-01T10:00:15.713Z,97535.53
2022-10-01T10:02:49.222Z,97520.50
2022-10-01T10:05:39.865Z,97546.09
2022-10-01T10:08:33.905Z,97530.03
2022-10-01T10:11:21.932Z,97519.22
2022-10-01T10:14:04.669Z,97551.59
2022-10-01T10:16:37.925Z,97552.03
2022-10-01T10:19:19.214Z,97556.47
2022-10-01T10:21:59.826Z,97573.69
2022-10-01T10:24:35.136Z,97586.66
2022-10-01T10:27:07.093Z,97575.53
2022-10-01T10:29:39.273Z,97575.84
2022-10-01T10:32:29.551Z,97583.75
2022-10-01T10:35:07.820Z,97586.84
2022-10-01T10:37:48.478Z,97589.31
2022-10-01T10:40:29.514Z,97594.91
2022-10-01T10:43:01.674Z,97586.84
2022-10-01T10:45:39.459Z,97584.41
2022-10-01T10:48:20.567Z,97582.91
2022-10-01T10:50:55.689Z,97583.41
2022-10-01T10:53:31.313Z,97589.31
2022-10-01T10:56:02.077Z,97598.22
2022-10-01T10:58:44.055Z,97590.41
2022-10-01T11:01:22.190Z,97585.88
2022-10-01T11:03:56.236Z,97596.03
2022-10-01T11:06:24.229Z,97595.72
2022-10-01T11:09:08.393Z,97600.38
2022-10-01T11:12:05.319Z,97586.97
2022-10-01T11:15:17.038Z,97576.22
2022-10-01T11:17:55.352Z,97587.44
2022-10-01T11:20:56.063Z,97579.56
2022-10-01T11:23:50.351Z,97583.88
2022-10-01T11:26:57.781Z,97582.09
2022-10-01T11:29:59.680Z,97576.91
2022-10-01T11:32:46.190Z,97592.84
2022-10-01T11:35:55.601Z,97607.53
2022-10-01T11:38:43.700Z,97590.94
2022-10-01T11:41:21.046Z,97583.13
2022-10-01T11:44:04.380Z,97595.44
2022-10-01T11:46:54.376Z,97583.06
2022-10-01T11:49:51.785Z,97585.66
2022-10-01T11:52:24.998Z,97600.84
2022-10-01T11:55:24.410Z,97594.59
2022-10-01T11:58:36.236Z,97594.09
2022-10-01T12:01:26.166Z,97586.53
2022-10-01T12:03:56.239Z,97567.66
2022-10-01T12:06:56.912Z,97591.75
2022-10-01T12:09:38.978Z,97589.69
2022-10-01T12:12:17.651Z,97578.63
2022-10-01T12:15:16.333Z,97580.44
2022-10-01T12:18:06.625Z,97556.03
2022-10-01T12:20:53.789Z,97557.41
2022-10-01T12:23:28.513Z,97549.94
2022-10-01T12:26:35.905Z,97550.72
2022-10-01T12:29:55.406Z,97562.84
2022-10-01T12:32:34.204Z,97541.56
2022-10-01T12:35:37.530Z,97564.06
2022-10-01T12:38:37.458Z,97560.72
2022-10-01T12:41:07.731Z,97556.44
2022-10-01T12:44:11.846Z,97553.94
2022-10-01T12:46:49.963Z,97554.59
2022-10-01T12:49:49.571Z,97572.25
2022-10-01T12:52:38.703Z,97577.84
2022-10-01T12:55:55.007Z,97576.53
2022-10-01T12:59:03.178Z,97569.44
2022-10-01T13:01:46.240Z,97559.00
2022-10-01T13:04:25.763Z,97575.06
2022-10-01T13:07:19.001Z,97581.41
2022-10-01T13:10:04.398Z,97583.56
2022-10-01T13:13:02.460Z,97577.34
2022-10-01T13:15:39.636Z,97584.78
2022-10-01T13:18:40.196Z,97589.06
2022-10-01T13:21:21.953Z,97598.50
2022-10-01T13:24:24.345Z,97596.03
2022-10-01T13:26:57.886Z,97599.28
2022-10-01T13:29:44.144Z,97602.97
2022-10-01T13:32:56.360Z,97596.09
2022-10-01T13:35:56.364Z,97591.13
2022-10-01T13:38:57.209Z,97603.75
2022-10-01T13:41:37.586Z,97606.56
2022-10-01T13:44:12.915Z,97629.00
2022-10-01T13:47:10.152Z,97626.44
2022-10-01T13:49:43.845Z,97642.31
2022-10-01T13:52:22.801Z,97643.56
2022-10-01T13:55:00.799Z,97614.00
2022-10-01T13:57:40.980Z,97602.97
2022-10-01T14:00:23.267Z,97602.03
2022-10-01T14:03:26.537Z,97600.94
2022-10-01T14:05:58.896Z,97593.94
2022-10-01T14:09:00.338Z,97587.09
2022-10-01T14:11:52.159Z,97582.56
2022-10-01T14:14:56.989Z,97580.72
2022-10-01T14:17:32.605Z,97567.38
2022-10-01T14:20:01.654Z,97572.34
2022-10-01T14:23:15.687Z,97580.13
2022-10-01T14:26:27.656Z,97567.75
2022-10-01T14:29:37.303Z,97561.66
2022-10-01T14:32:38.008Z,97550.69
2022-10-01T14:35:42.143Z,97554.03
2022-10-01T14:38:21.250Z,97546.88
2022-10-01T14:40:54.073Z,97551.78
2022-10-01T14:43:28.487Z,97552.22
2022-10-01T14:46:15.607Z,97547.66
2022-10-01T14:48:45.178Z,97553.19
2022-10-01T14:51:53.353Z,97562.88
2022-10-01T14:54:28.670Z,97584.25
2022-10-01T14:56:56.992Z,97601.00
2022-10-01T14:59:40.753Z,97606.25
2022-10-01T15:02:27.516Z,97621.94
2022-10-01T15:05:00.796Z,97626.94
2022-10-01T15:07:39.455Z,97616.03
2022-10-01T15:10:11.537Z,97617.06
2022-10-01T15:12:42.979Z,97631.44
2022-10-01T15:15:36.226Z,97633.16
2022-10-01T15:18:09.117Z,97635.06
2022-10-01T15:20:40.418Z,97639.50
2022-10-01T15:23:09.037Z,97642.78
2022-10-01T15:25:38.668Z,97637.78
2022-10-01T15:28:30.157Z,97651.81
2022-10-01T15:31:01.308Z,97643.06
2022-10-01T15:33:49.589Z,97645.28
2022-10-01T15:36:19.331Z,97662.13
2022-10-01T15:38:49.624Z,97646.72
2022-10-01T15:41:39.510Z,97647.09
2022-10-01T15:44:34.337Z,97659.78
2022-10-01T15:47:24.793Z,97658.09
2022-10-01T15:50:08.829Z,97655.94
2022-10-01T15:52:51.109Z,97665.63
2022-10-01T15:55:44.125Z,97672.84
2022-10-01T15:58:21.393Z,97672.28
2022-10-01T16:00:48.849Z,97675.53
2022-10-01T16:03:39.162Z,97682.22
2022-10-01T16:06:39.174Z,97680.72
2022-10-01T16:09:32.228Z,97674.16
2022-10-01T16:12:14.231Z,97686.91
2022-10-01T16:14:58.114Z,97680.97
2022-10-01T16:17:36.031Z,97676.16
2022-10-01T16:20:15.435Z,97690.47
2022-10-01T16:22:49.025Z,97696.13
2022-10-01T16:25:28.292Z,97697.16
2022-10-01T16:28:20.787Z,97704.19
2022-10-01T16:30:51.806Z,97706.19
2022-10-01T16:33:19.891Z,97711.28
2022-10-01T16:35:51.884Z,97714.44
2022-10-01T16:38:23.393Z,97709.28
2022-10-01T16:41:07.342Z,97716.22
2022-10-01T16:43:38.716Z,97727.75
2022-10-01T16:46:12.467Z,97732.00
2022-10-01T16:48:42.559Z,97738.41
2022-10-01T16:51:13.638Z,97731.13
2022-10-01T16:53:44.176Z,97722.41
2022-10-01T16:56:13.096Z,97732.25
2022-10-01T16:58:45.038Z,97735.69
2022-10-01T17:01:19.450Z,97735.84
2022-10-01T17:03:47.457Z,97742.81
2022-10-01T17:06:18.591Z,97739.59
2022-10-01T17:08:52.984Z,97754.28
2022-10-01T17:11:25.815Z,97756.03
2022-10-01T17:13:59.583Z,97766.38
2022-10-01T17:16:31.164Z,97768.06
2022-10-01T17:19:02.896Z,97776.75
2022-10-01T17:21:37.891Z,97770.09
2022-10-01T17:24:12.404Z,97783.72
2022-10-01T17:26:49.851Z,97783.81
2022-10-01T17:29:21.940Z,97789.84
2022-10-01T17:31:55.422Z,97799.34
2022-10-01T17:34:26.830Z,97801.56
2022-10-01T17:37:02.941Z,97802.03
2022-10-01T17:39:34.701Z,97804.88
2022-10-01T17:42:08.888Z,97794.94
2022-10-01T17:44:45.531Z,97801.81
2022-10-01T17:47:17.402Z,97802.50
2022-10-01T17:49:51.206Z,97810.06
2022-10-01T17:52:21.724Z,97817.13
2022-10-01T17:54:52.619Z,97826.03
2022-10-01T17:57:22.038Z,97830.53
2022-10-01T17:59:54.125Z,97826.69
2022-10-01T18:02:41.005Z,97826.97
2022-10-01T18:05:15.579Z,97824.34
2022-10-01T18:07:47.783Z,97819.88
2022-10-01T18:10:20.607Z,97819.84
2022-10-01T18:12:52.506Z,97821.28
2022-10-01T18:15:28.497Z,97820.72
2022-10-01T18:19:24.288Z,97831.88
2022-10-01T18:20:52.519Z,97842.47
2022-10-01T18:23:25.975Z,97835.63
2022-10-01T18:25:56.850Z,97845.31
2022-10-01T18:28:37.821Z,97848.84
2022-10-01T18:31:30.328Z,97838.81
2022-10-01T18:34:14.973Z,97844.44
2022-10-01T18:37:21.810Z,97851.94
2022-10-01T18:40:10.826Z,97852.25
2022-10-01T18:42:48.132Z,97851.75
2022-10-01T18:45:57.980Z,97861.00
2022-10-01T18:48:30.396Z,97868.59
2022-10-01T18:51:26.936Z,97881.69
2022-10-01T18:54:38.261Z,97884.38
2022-10-01T18:58:06.766Z,97884.66
2022-10-01T19:00:58.424Z,97892.81
2022-10-01T19:03:56.002Z,97893.84
2022-10-01T19:07:04.509Z,97890.78
2022-10-01T19:09:58.220Z,97898.72
2022-10-01T19:12:54.810Z,97897.53
2022-10-01T19:16:04.872Z,97905.00
2022-10-01T19:19:16.642Z,97901.31
2022-10-01T19:22:32.934Z,97906.41
2022-10-01T19:25:45.666Z,97907.78
2022-10-01T19:28:26.688Z,97910.38
2022-10-01T19:31:24.916Z,97917.22
2022-10-01T19:34:10.740Z,97917.72
2022-10-01T19:36:53.162Z,97914.16
2022-10-01T19:39:38.174Z,97916.44
2022-10-01T19:42:31.772Z,97931.47
2022-10-01T19:45:27.919Z,97939.88
2022-10-01T19:48:28.930Z,97939.69
2022-10-01T19:51:11.806Z,97938.63
2022-10-01T19:53:53.907Z,97944.53
2022-10-01T19:56:36.727Z,97943.22
2022-10-01T19:59:17.612Z,97942.59
2022-10-01T20:02:28.837Z,97943.44
2022-10-01T20:05:15.055Z,97949.41
2022-10-01T20:08:16.159Z,97951.66
2022-10-01T20:10:57.162Z,97948.97
2022-10-01T20:14:06.290Z,97952.72
2022-10-01T20:16:49.480Z,97960.28
2022-10-01T20:19:34.682Z,97967.38
2022-10-01T20:22:11.054Z,97976.63
2022-10-01T20:24:51.036Z,97970.66
2022-10-01T20:27:33.758Z,97971.56
2022-10-01T20:30:11.016Z,97985.66
2022-10-01T20:33:31.933Z,97977.28
2022-10-01T20:36:36.444Z,97990.41
2022-10-01T20:39:40.869Z,97990.38
2022-10-01T20:42:36.185Z,97991.94
2022-10-01T20:45:17.761Z,98006.03
2022-10-01T20:48:44.082Z,98007.59
2022-10-01T20:51:48.099Z,98005.75
2022-10-01T20:54:44.579Z,98013.88
2022-10-01T20:57:28.624Z,98004.97
2022-10-01T21:00:08.972Z,98001.22
2022-10-01T21:03:11.218Z,98008.66
2022-10-01T21:06:14.219Z,98015.63
2022-10-01T21:09:23.058Z,98018.22
2022-10-01T21:12:09.095Z,98035.19
2022-10-01T21:14:54.164Z,98041.84
2022-10-01T21:17:49.604Z,98041.25
2022-10-01T21:21:03.295Z,98042.66
2022-10-01T21:24:16.106Z,98033.63
2022-10-01T21:27:26.404Z,98032.69
2022-10-01T21:30:14.549Z,98033.63
2022-10-01T21:33:12.163Z,98026.03
2022-10-01T21:35:55.602Z,98036.28
2022-10-01T21:38:40.197Z,98042.09
2022-10-01T21:41:49.347Z,98040.91
2022-10-01T21:44:43.435Z,98043.34
2022-10-01T21:47:23.503Z,98040.94
2022-10-01T21:50:02.556Z,98036.34
2022-10-01T21:53:28.969Z,98040.53
2022-10-01T21:56:38.619Z,98034.41
2022-10-01T21:59:48.841Z,98031.25
2022-10-01T22:02:26.837Z,98022.06
2022-10-01T22:05:09.622Z,98024.88
2022-10-01T22:08:18.165Z,98012.38
2022-10-01T22:11:19.922Z,98022.66
2022-10-01T22:14:04.630Z,98030.84
2022-10-01T22:16:44.040Z,98031.63
2022-10-01T22:19:18.145Z,98035.50
2022-10-01T22:22:02.738Z,98016.38
2022-10-01T22:24:41.130Z,98022.50
2022-10-01T22:27:20.533Z,98024.94
2022-10-01T22:30:43.577Z,98027.59
2022-10-01T22:33:18.486Z,98029.34
2022-10-01T22:36:12.890Z,98027.38
2022-10-01T22:38:56.985Z,98035.25
2022-10-01T22:42:02.791Z,98023.47
2022-10-01T22:44:30.868Z,98029.44
2022-10-01T22:47:21.985Z,98028.06
2022-10-01T22:50:35.114Z,98032.88
2022-10-01T22:53:19.113Z,98035.72
2022-10-01T22:56:07.028Z,98031.00
2022-10-01T22:59:09.922Z,98031.84
2022-10-01T23:02:06.008Z,98029.38
2022-10-01T23:05:11.141Z,98027.13
2022-10-01T23:08:02.709Z,98010.50
2022-10-01T23:11:07.475Z,98008.94
2022-10-01T23:13:52.060Z,98012.97
2022-10-01T23:16:43.441Z,98015.50
2022-10-01T23:19:45.626Z,98011.47
2022-10-01T23:22:31.335Z,98007.63
2022-10-01T23:25:48.808Z,98005.59
2022-10-01T23:28:55.778Z,98004.34
2022-10-01T23:31:37.245Z,98013.84
2022-10-01T23:34:19.846Z,98010.00
2022-10-01T23:37:15.339Z,98014.47
2022-10-01T23:40:12.695Z,98012.38
2022-10-01T23:43:02.446Z,98011.13
2022-10-01T23:45:57.883Z,98022.75
2022-10-01T23:48:25.177Z,98029.69
2022-10-01T23:51:30.247Z,98020.66
2022-10-01T23:54:05.099Z,98029.44
2022-10-01T23:56:53.036Z,98040.19
2022-10-01T23:59:55.388Z,98044.06
